Time;durP1;ratioP1;P1;durP2;ratioP2;P2;SDS_P1;SDS_P2;PMS_P1;PMS_P2;Temp;Humidity;BMP_temperature;BMP_pressure;BME280_temperature;BME280_humidity;BME280_pressure;Samples;Min_cycle;Max_cycle;Signal;HPM_P1;HPM_P2
2022/07/03 00:01:25;;;;;;;4.82;2.55;;;17.20;99.90;;;;;;5054792;28;20706;-77
2022/07/03 00:03:51;;;;;;;4.32;2.22;;;17.10;99.90;;;;;;5071957;28;20044;-77
2022/07/03 00:06:17;;;;;;;3.47;2.05;;;17.00;99.90;;;;;;5038698;28;20072;-78
2022/07/03 00:08:43;;;;;;;3.30;2.03;;;17.00;99.90;;;;;;5073217;28;20068;-78
2022/07/03 00:11:09;;;;;;;4.53;3.10;;;17.00;99.90;;;;;;5054860;28;20082;-78
2022/07/03 00:13:35;;;;;;;6.78;3.10;;;17.00;99.90;;;;;;5054993;28;20102;-78
2022/07/03 00:16:01;;;;;;;4.60;2.83;;;17.00;99.90;;;;;;5054623;28;20052;-78
2022/07/03 00:18:27;;;;;;;5.15;2.55;;;17.00;99.90;;;;;;5055147;28;20043;-78
2022/07/03 00:21:01;;;;;;;4.68;2.80;;;16.90;99.90;;;;;;5054539;28;20041;-77
2022/07/03 00:23:33;;;;;;;3.58;2.50;;;16.90;99.90;;;;;;5038478;28;20041;-77
2022/07/03 00:26:01;;;;;;;5.00;3.03;;;16.80;99.90;;;;;;5072507;28;20048;-77
2022/07/03 00:28:29;;;;;;;6.10;2.67;;;16.80;99.90;;;;;;5054846;28;20086;-77
2022/07/03 00:30:56;;;;;;;3.03;2.40;;;16.80;99.90;;;;;;5054434;28;20044;-77
2022/07/03 00:33:24;;;;;;;3.85;2.83;;;16.80;99.90;;;;;;5054770;28;20163;-77
2022/07/03 00:35:54;;;;;;;2.92;2.65;;;16.80;99.90;;;;;;5054262;28;20389;-78
2022/07/03 00:38:21;;;;;;;7.07;3.10;;;16.80;99.90;;;;;;5054514;28;20411;-77
2022/07/03 00:40:47;;;;;;;4.25;2.65;;;16.80;99.90;;;;;;5054353;28;20044;-77
2022/07/03 00:43:15;;;;;;;6.32;3.42;;;16.70;99.90;;;;;;5054639;28;20047;-77
2022/07/03 00:45:45;;;;;;;3.58;3.03;;;16.60;99.90;;;;;;5054301;28;20547;-77
2022/07/03 00:48:13;;;;;;;5.30;3.00;;;16.60;99.90;;;;;;5054862;28;20446;-77
2022/07/03 00:50:45;;;;;;;8.80;3.25;;;16.50;99.90;;;;;;5053959;28;20059;-77
2022/07/03 00:53:13;;;;;;;3.97;2.88;;;16.50;99.90;;;;;;5053476;28;20048;-78
2022/07/03 00:55:41;;;;;;;6.13;3.10;;;16.40;99.90;;;;;;5054152;28;20568;-77
2022/07/03 00:58:07;;;;;;;3.90;2.83;;;16.40;99.90;;;;;;5054136;28;20045;-77
2022/07/03 01:00:37;;;;;;;3.97;3.00;;;16.40;99.90;;;;;;5037453;28;20033;-77
2022/07/03 01:03:06;;;;;;;3.83;3.25;;;16.20;99.90;;;;;;5070902;28;20647;-77
2022/07/03 01:05:36;;;;;;;4.00;3.53;;;16.20;99.90;;;;;;5054057;28;20495;-77
2022/07/03 01:08:01;;;;;;;5.18;3.35;;;16.10;99.90;;;;;;5054959;28;20119;-78
2022/07/03 01:11:05;;;;;;;4.30;2.95;;;16.00;99.90;;;;;;5054442;28;20123;-78
2022/07/03 01:13:47;;;;;;;4.78;3.28;;;15.90;99.90;;;;;;5054813;28;20045;-78
2022/07/03 01:16:31;;;;;;;5.68;3.63;;;15.90;99.90;;;;;;5054359;28;20511;-78
2022/07/03 01:19:16;;;;;;;5.25;2.85;;;15.90;99.90;;;;;;5054296;28;20052;-78
2022/07/03 01:21:58;;;;;;;3.10;2.80;;;15.80;99.90;;;;;;5054385;28;20059;-78
2022/07/03 01:24:41;;;;;;;5.30;2.78;;;15.70;99.90;;;;;;5054391;28;20128;-78
2022/07/03 01:27:24;;;;;;;4.75;3.53;;;15.70;99.90;;;;;;5053898;28;20172;-78
2022/07/03 01:30:03;;;;;;;;;;;15.60;99.90;;;;;;5053950;28;20089;-78
2022/07/03 01:32:37;;;;;;;4.30;3.33;;;15.60;99.90;;;;;;5054106;28;20315;-78
2022/07/03 01:35:06;;;;;;;6.63;3.35;;;15.50;99.90;;;;;;5053887;28;20040;-76
2022/07/03 01:37:34;;;;;;;3.38;2.88;;;15.50;99.90;;;;;;5053324;28;20519;-76
2022/07/03 01:40:03;;;;;;;5.63;3.10;;;15.50;99.90;;;;;;5053045;28;20044;-77
2022/07/03 01:42:32;;;;;;;7.63;3.83;;;15.60;99.90;;;;;;5054026;28;20037;-78
2022/07/03 01:44:59;;;;;;;3.90;2.83;;;15.50;99.90;;;;;;5054347;28;20072;-78
2022/07/03 01:47:25;;;;;;;3.38;2.97;;;15.50;99.90;;;;;;5054033;28;20817;-78
2022/07/03 01:49:53;;;;;;;4.70;3.17;;;15.40;99.90;;;;;;5054279;28;20076;-78
2022/07/03 01:52:20;;;;;;;4.78;3.00;;;15.40;99.90;;;;;;5054065;28;20445;-78
2022/07/03 01:54:47;;;;;;;4.28;3.17;;;15.40;99.90;;;;;;5071940;28;20047;-78
2022/07/03 01:57:13;;;;;;;4.55;3.30;;;15.40;99.90;;;;;;5037270;28;20055;-78
2022/07/03 01:59:39;;;;;;;8.52;3.47;;;15.40;99.90;;;;;;5054399;28;20040;-78
2022/07/03 02:02:31;;;;;;;5.78;3.15;;;15.30;99.90;;;;;;5054001;28;20510;-78
2022/07/03 02:05:09;;;;;;;5.07;2.90;;;15.30;99.90;;;;;;5053321;28;20040;-78
2022/07/03 02:07:49;;;;;;;6.75;3.58;;;15.30;99.90;;;;;;5060841;28;20051;-78
2022/07/03 02:10:28;;;;;;;4.57;3.80;;;15.30;99.90;;;;;;5080355;28;20032;-77
2022/07/03 02:13:07;;;;;;;7.00;3.65;;;15.30;99.90;;;;;;5078762;28;20052;-77
2022/07/03 02:15:35;;;;;;;4.15;3.75;;;15.40;99.90;;;;;;5053271;28;20049;-78
2022/07/03 02:18:21;;;;;;;7.78;3.80;;;15.30;99.90;;;;;;5053287;28;20109;-78
2022/07/03 02:20:56;;;;;;;4.43;3.67;;;15.30;99.90;;;;;;5052819;28;20041;-78
2022/07/03 02:23:26;;;;;;;7.13;3.75;;;15.30;99.90;;;;;;5053043;28;20044;-78
2022/07/03 02:25:57;;;;;;;5.68;3.72;;;15.30;99.90;;;;;;5053281;28;20052;-78
2022/07/03 02:28:29;;;;;;;4.03;3.40;;;15.20;99.90;;;;;;5053213;28;20072;-78
2022/07/03 02:31:00;;;;;;;5.88;3.80;;;15.20;99.90;;;;;;5070868;28;20044;-78
2022/07/03 02:33:30;;;;;;;4.43;3.42;;;15.20;99.90;;;;;;5053184;28;20076;-78
2022/07/03 02:35:57;;;;;;;4.63;3.35;;;15.10;99.90;;;;;;5036004;28;20133;-78
2022/07/03 02:38:24;;;;;;;5.43;3.80;;;15.10;99.90;;;;;;5054127;28;20176;-78
2022/07/03 02:41:08;;;;;;;4.53;3.90;;;15.00;99.90;;;;;;5053030;28;20498;-78
2022/07/03 02:43:43;;;;;;;8.82;4.32;;;15.00;99.90;;;;;;5052508;28;20039;-78
2022/07/03 02:49:19;;;;;;;6.55;4.20;;;14.90;99.90;;;;;;5052447;28;20071;-77
2022/07/03 02:52:09;;;;;;;7.03;4.82;;;14.80;99.90;;;;;;5052637;28;20052;-78
2022/07/03 02:54:43;;;;;;;5.85;3.92;;;14.80;99.90;;;;;;5052778;28;20101;-77
2022/07/03 02:57:09;;;;;;;4.75;3.88;;;14.80;99.90;;;;;;5052489;28;20063;-77
2022/07/03 02:59:57;;;;;;;4.22;3.67;;;14.80;99.90;;;;;;5052239;28;20495;-78
2022/07/03 03:02:41;;;;;;;7.80;4.18;;;14.80;99.90;;;;;;5052965;28;20060;-77
2022/07/03 03:05:15;;;;;;;6.57;4.28;;;14.80;99.90;;;;;;5052558;28;20162;-77
2022/07/03 03:07:55;;;;;;;10.80;5.03;;;14.80;99.90;;;;;;5052859;28;20075;-77
2022/07/03 03:10:21;;;;;;;6.75;4.35;;;14.80;99.90;;;;;;5052804;28;20040;-77
2022/07/03 03:12:53;;;;;;;5.97;4.28;;;14.70;99.90;;;;;;5036221;28;20228;-78
2022/07/03 03:15:24;;;;;;;7.20;4.22;;;14.70;99.90;;;;;;5053343;28;20036;-78
2022/07/03 03:17:52;;;;;;;5.15;4.10;;;14.70;99.90;;;;;;5092459;28;20036;-79
2022/07/03 03:20:26;;;;;;;7.40;4.68;;;14.60;99.90;;;;;;5083082;28;20040;-76
2022/07/03 03:23:30;;;;;;;7.22;4.30;;;14.60;99.90;;;;;;5070246;28;20166;-77
2022/07/03 03:25:58;;;;;;;5.40;4.40;;;14.60;99.90;;;;;;5056231;28;20514;-77
2022/07/03 03:28:25;;;;;;;5.72;4.22;;;14.60;99.90;;;;;;5056252;28;20373;-77
2022/07/03 03:30:50;;;;;;;5.72;4.30;;;14.60;99.90;;;;;;5073775;28;20068;-77
2022/07/03 03:33:17;;;;;;;4.70;3.75;;;14.60;99.90;;;;;;5073924;28;20071;-77
2022/07/03 03:35:42;;;;;;;5.75;4.70;;;14.60;99.90;;;;;;5073838;28;20412;-77
2022/07/03 03:38:08;;;;;;;5.20;4.70;;;14.50;99.90;;;;;;5056286;28;20059;-77
2022/07/03 03:40:34;;;;;;;6.65;5.10;;;14.60;99.90;;;;;;5055873;28;20049;-77
2022/07/03 03:43:01;;;;;;;7.10;4.30;;;14.50;99.90;;;;;;5056036;28;20041;-77
2022/07/03 03:45:27;;;;;;;5.43;4.43;;;14.50;99.90;;;;;;5039440;28;20045;-77
2022/07/03 03:47:53;;;;;;;5.68;5.13;;;14.60;99.90;;;;;;5055857;28;20042;-77
2022/07/03 03:50:19;;;;;;;6.10;5.50;;;14.60;99.90;;;;;;5055664;28;20044;-77
2022/07/03 03:52:45;;;;;;;7.10;5.03;;;14.60;99.90;;;;;;5039013;28;20059;-77
2022/07/03 03:55:11;;;;;;;5.43;4.93;;;14.60;99.90;;;;;;5055404;28;20062;-77
2022/07/03 03:57:37;;;;;;;12.05;5.13;;;14.70;99.90;;;;;;5073697;28;20037;-77
2022/07/03 04:00:06;;;;;;;6.20;4.90;;;14.70;99.90;;;;;;5055301;28;20040;-77
2022/07/03 04:02:32;;;;;;;7.70;4.93;;;14.70;99.90;;;;;;5055545;28;20040;-77
2022/07/03 04:04:58;;;;;;;9.43;5.13;;;14.80;99.90;;;;;;5038748;28;20048;-77
2022/07/03 04:07:24;;;;;;;5.30;4.80;;;14.80;99.90;;;;;;5055939;28;20070;-77
2022/07/03 04:09:49;;;;;;;7.25;5.50;;;14.80;99.90;;;;;;5055359;28;20101;-77
2022/07/03 04:12:15;;;;;;;6.75;5.50;;;14.80;99.90;;;;;;5055298;28;20601;-77
2022/07/03 04:14:41;;;;;;;6.60;4.70;;;14.90;99.90;;;;;;5055748;28;20036;-77
2022/07/03 04:17:06;;;;;;;6.65;4.88;;;14.90;99.90;;;;;;5055134;28;20044;-77
2022/07/03 04:19:32;;;;;;;7.53;5.43;;;15.00;99.90;;;;;;5055003;28;20040;-77
2022/07/03 04:21:58;;;;;;;7.05;5.60;;;15.00;99.90;;;;;;5055249;28;20040;-77
2022/07/03 04:24:24;;;;;;;6.45;5.38;;;15.00;99.90;;;;;;5055037;28;20036;-77
2022/07/03 04:26:49;;;;;;;9.13;5.93;;;15.10;99.90;;;;;;5053849;28;20048;-77
2022/07/03 04:29:15;;;;;;;6.22;5.63;;;15.00;99.90;;;;;;5055448;28;20044;-78
2022/07/03 04:31:41;;;;;;;6.10;5.10;;;15.00;99.90;;;;;;5056225;28;20044;-78
2022/07/03 04:34:06;;;;;;;9.60;5.63;;;15.00;99.90;;;;;;5056448;28;20037;-78
2022/07/03 04:36:32;;;;;;;6.25;5.30;;;15.00;99.90;;;;;;5056104;28;20048;-78
2022/07/03 04:38:58;;;;;;;6.00;5.47;;;15.10;99.90;;;;;;5056125;28;20041;-78
2022/07/03 04:41:23;;;;;;;9.40;5.57;;;15.10;99.90;;;;;;5073233;28;20400;-78
2022/07/03 04:43:49;;;;;;;7.65;5.60;;;15.00;99.90;;;;;;5055952;28;20154;-78
2022/07/03 04:46:14;;;;;;;5.88;5.28;;;15.10;99.90;;;;;;5073434;28;20040;-78
2022/07/03 04:48:40;;;;;;;8.52;5.82;;;15.10;99.90;;;;;;5055686;28;20403;-78
2022/07/03 04:51:06;;;;;;;6.97;5.82;;;15.10;99.90;;;;;;5054943;28;20080;-78
2022/07/03 04:53:31;;;;;;;8.20;5.40;;;15.10;99.90;;;;;;5055058;28;20113;-78
2022/07/03 04:55:57;;;;;;;7.85;6.28;;;15.00;99.90;;;;;;5038409;28;20094;-79
2022/07/03 04:58:23;;;;;;;7.95;5.82;;;15.00;99.90;;;;;;5055907;28;20483;-78
2022/07/03 05:00:48;;;;;;;9.10;6.10;;;15.00;99.90;;;;;;5056041;28;20044;-78
2022/07/03 05:03:14;;;;;;;8.23;5.90;;;14.90;99.90;;;;;;5056059;28;20040;-78
2022/07/03 05:05:40;;;;;;;8.07;6.03;;;14.90;99.90;;;;;;5056333;28;20041;-78
2022/07/03 05:08:06;;;;;;;9.77;6.65;;;14.90;99.90;;;;;;5055695;28;20042;-78
2022/07/03 05:10:31;;;;;;;6.68;5.97;;;15.10;99.90;;;;;;5055550;28;20044;-78
2022/07/03 05:12:57;;;;;;;7.13;5.68;;;15.30;99.90;;;;;;5056839;28;20044;-78
2022/07/03 05:15:23;;;;;;;8.57;6.13;;;15.70;99.90;;;;;;5055786;28;20063;-78
2022/07/03 05:17:49;;;;;;;7.50;5.55;;;16.30;99.90;;;;;;5056146;28;20492;-78
2022/07/03 05:20:24;;;;;;;7.45;5.70;;;16.90;99.90;;;;;;5055206;28;20048;-79
2022/07/03 05:23:00;;;;;;;6.38;5.38;;;17.50;99.90;;;;;;5054699;28;20119;-77
2022/07/03 05:25:28;;;;;;;7.95;5.05;;;18.10;99.90;;;;;;5053930;28;20044;-78
2022/07/03 05:27:54;;;;;;;6.13;4.85;;;18.80;99.90;;;;;;5054100;28;20040;-78
2022/07/03 05:30:24;;;;;;;5.80;4.70;;;19.30;99.90;;;;;;5053553;28;20036;-78
2022/07/03 05:32:50;;;;;;;5.43;4.85;;;19.80;99.90;;;;;;5053780;28;20519;-78
2022/07/03 05:35:16;;;;;;;7.15;4.32;;;20.20;99.90;;;;;;5053910;28;20063;-78
2022/07/03 05:37:42;;;;;;;5.60;4.45;;;20.50;99.90;;;;;;5071817;28;20032;-78
2022/07/03 05:40:08;;;;;;;6.80;4.18;;;21.00;99.90;;;;;;5053830;28;20036;-78
2022/07/03 05:42:34;;;;;;;4.60;4.20;;;21.30;99.90;;;;;;5054147;28;20068;-78
2022/07/03 05:45:00;;;;;;;5.80;3.63;;;21.70;99.90;;;;;;5053737;28;20079;-78
2022/07/03 05:47:26;;;;;;;4.32;3.40;;;21.90;99.90;;;;;;5054881;28;20056;-79
2022/07/03 05:49:51;;;;;;;4.10;3.22;;;22.10;99.90;;;;;;5054755;28;20032;-79
2022/07/03 05:52:17;;;;;;;5.03;3.45;;;22.50;99.90;;;;;;5055065;28;20067;-79
2022/07/03 05:54:43;;;;;;;3.72;3.20;;;22.80;99.90;;;;;;5054675;28;20423;-79
2022/07/03 05:57:09;;;;;;;5.75;3.30;;;23.10;99.90;;;;;;5055008;28;20036;-79
2022/07/03 05:59:34;;;;;;;5.82;2.97;;;23.30;99.90;;;;;;5054700;28;20040;-79
2022/07/03 06:02:00;;;;;;;4.70;2.55;;;23.50;99.90;;;;;;5055701;28;20041;-79
2022/07/03 06:04:26;;;;;;;4.47;2.92;;;23.70;99.90;;;;;;5055375;28;20490;-79
2022/07/03 06:06:52;;;;;;;3.38;2.47;;;24.00;99.90;;;;;;5055158;28;20094;-79
2022/07/03 06:09:17;;;;;;;3.03;2.20;;;24.20;99.90;;;;;;5053850;28;20051;-78
2022/07/03 06:11:43;;;;;;;3.72;2.08;;;24.50;99.90;;;;;;5052702;28;20059;-78
2022/07/03 06:14:09;;;;;;;5.60;2.53;;;24.40;99.90;;;;;;5053024;28;20172;-78
2022/07/03 06:16:35;;;;;;;4.80;2.63;;;23.90;99.90;;;;;;5053438;28;20043;-79
2022/07/03 06:19:00;;;;;;;5.55;1.98;;;23.60;99.90;;;;;;5053093;28;20098;-79
2022/07/03 06:21:26;;;;;;;2.97;1.80;;;23.50;99.90;;;;;;5053219;28;20080;-79
2022/07/03 06:23:51;;;;;;;3.97;1.92;;;23.80;99.90;;;;;;5053971;28;20047;-79
2022/07/03 06:26:17;;;;;;;3.80;1.80;;;24.00;99.90;;;;;;5053205;28;20043;-79
2022/07/03 06:28:43;;;;;;;3.83;1.67;;;24.30;99.90;;;;;;5054792;28;20032;-79
2022/07/03 06:31:09;;;;;;;4.45;1.73;;;24.50;99.90;;;;;;5055259;28;20383;-79
2022/07/03 06:33:35;;;;;;;4.15;2.03;;;24.80;99.90;;;;;;5054848;28;20037;-79
2022/07/03 06:36:00;;;;;;;5.18;1.80;;;24.90;99.90;;;;;;5054016;28;20444;-79
2022/07/03 06:38:26;;;;;;;7.43;2.20;;;25.00;99.90;;;;;;5054259;28;20047;-79
2022/07/03 06:40:52;;;;;;;5.28;1.90;;;25.10;99.90;;;;;;5053714;28;20043;-80
2022/07/03 06:43:17;;;;;;;2.95;1.83;;;25.20;99.90;;;;;;5070911;28;20123;-79
2022/07/03 06:45:43;;;;;;;5.13;1.95;;;25.30;99.90;;;;;;5052816;28;20117;-79
2022/07/03 06:48:09;;;;;;;3.40;2.30;;;25.30;99.90;;;;;;5052933;28;20504;-79
2022/07/03 06:50:34;;;;;;;4.88;1.92;;;25.60;99.90;;;;;;5053902;28;20033;-80
2022/07/03 06:53:00;;;;;;;4.50;1.70;;;25.80;99.90;;;;;;5056669;28;20111;-79
2022/07/03 06:55:26;;;;;;;2.20;1.50;;;25.90;99.70;;;;;;5057266;28;20075;-79
2022/07/03 06:57:52;;;;;;;3.33;1.60;;;26.00;99.60;;;;;;5059069;28;20041;-80
2022/07/03 07:00:17;;;;;;;2.33;1.50;;;26.20;99.00;;;;;;5075307;28;20043;-80
2022/07/03 07:02:43;;;;;;;1.65;1.00;;;26.20;97.90;;;;;;5075671;28;20105;-79
2022/07/03 07:05:09;;;;;;;3.17;1.13;;;26.30;96.30;;;;;;5058881;28;20051;-79
2022/07/03 07:07:34;;;;;;;1.63;0.88;;;26.20;95.10;;;;;;5059503;28;20047;-79
2022/07/03 07:10:00;;;;;;;1.40;1.10;;;26.40;94.20;;;;;;5076406;28;20498;-80
2022/07/03 07:12:26;;;;;;;3.08;1.05;;;26.50;92.50;;;;;;5060005;28;20466;-79
2022/07/03 07:14:52;;;;;;;2.28;1.20;;;26.60;92.00;;;;;;5059330;28;20147;-80
2022/07/03 07:17:17;;;;;;;2.13;1.15;;;26.50;90.10;;;;;;5095553;28;20033;-78
2022/07/03 07:19:43;;;;;;;2.15;1.20;;;26.60;90.00;;;;;;5099394;28;20048;-81
2022/07/03 07:22:08;;;;;;;2.33;1.02;;;26.60;89.60;;;;;;5077992;28;20044;-79
2022/07/03 07:24:34;;;;;;;2.50;1.00;;;26.70;87.90;;;;;;5055943;28;20067;-79
2022/07/03 07:27:00;;;;;;;3.90;1.33;;;26.80;86.30;;;;;;5056097;28;20033;-79
2022/07/03 07:29:26;;;;;;;2.30;0.90;;;26.70;84.70;;;;;;5072671;28;20044;-79
2022/07/03 07:31:51;;;;;;;3.47;0.98;;;26.80;84.20;;;;;;5056115;28;20123;-79
2022/07/03 07:34:17;;;;;;;1.13;0.80;;;26.90;83.40;;;;;;5056369;28;20399;-79
2022/07/03 07:36:42;;;;;;;5.38;1.02;;;27.20;83.30;;;;;;5056015;28;20072;-80
2022/07/03 07:39:09;;;;;;;2.55;0.98;;;27.40;80.90;;;;;;5048070;28;20104;-79
2022/07/03 07:41:36;;;;;;;2.63;1.00;;;27.30;82.70;;;;;;5055904;28;20535;-82
2022/07/03 07:44:01;;;;;;;3.35;1.40;;;27.40;81.90;;;;;;5039073;28;20101;-82
2022/07/03 07:46:28;;;;;;;2.92;1.15;;;27.50;82.30;;;;;;5056235;28;20044;-82
2022/07/03 07:48:53;;;;;;;1.98;1.10;;;27.30;84.20;;;;;;5039976;28;20460;-82
2022/07/03 07:51:19;;;;;;;2.85;0.90;;;27.50;83.80;;;;;;5056090;28;20123;-82
2022/07/03 07:53:45;;;;;;;3.90;0.85;;;27.70;82.20;;;;;;5039591;28;20033;-82
2022/07/03 07:56:10;;;;;;;3.83;0.95;;;27.80;81.90;;;;;;5071581;23;20136;-81
2022/07/03 07:58:36;;;;;;;8.93;1.13;;;27.30;80.30;;;;;;5019158;28;20415;-81
2022/07/03 08:06:43;;;;;;;2.63;0.88;;;25.60;89.80;;;;;;5004975;28;20055;-80
2022/07/03 08:09:09;;;;;;;4.15;1.00;;;24.90;91.50;;;;;;5020436;28;20128;-80
2022/07/03 08:11:35;;;;;;;5.30;1.00;;;24.70;92.10;;;;;;5038461;28;20120;-82
2022/07/03 08:14:00;;;;;;;1.77;0.80;;;24.50;93.00;;;;;;5037185;28;20508;-82
2022/07/03 08:16:26;;;;;;;1.20;0.82;;;24.70;94.30;;;;;;5037517;28;20048;-81
2022/07/03 08:18:52;;;;;;;1.73;0.95;;;25.00;94.00;;;;;;5039152;28;20125;-82
2022/07/03 08:21:18;;;;;;;3.08;0.90;;;25.30;93.90;;;;;;5037481;28;20103;-82
2022/07/03 08:23:43;;;;;;;2.53;0.80;;;25.70;92.80;;;;;;5021260;28;20492;-81
2022/07/03 08:26:09;;;;;;;2.35;1.00;;;25.90;92.40;;;;;;5038754;28;20044;-81
2022/07/03 08:28:35;;;;;;;2.45;1.10;;;26.00;92.20;;;;;;5036711;28;20120;-82
2022/07/03 08:31:00;;;;;;;2.45;0.80;;;26.10;92.00;;;;;;5037077;28;20045;-81
2022/07/03 08:33:26;;;;;;;2.85;0.70;;;26.20;92.50;;;;;;5038325;28;20048;-81
2022/07/03 08:35:52;;;;;;;3.95;0.90;;;26.50;92.10;;;;;;5038196;28;20041;-81
2022/07/03 08:38:18;;;;;;;2.90;0.80;;;26.70;91.40;;;;;;5037136;28;20114;-82
2022/07/03 08:40:46;;;;;;;2.33;0.90;;;26.80;90.60;;;;;;5037258;28;20045;-81
2022/07/03 08:43:11;;;;;;;3.22;1.20;;;26.50;90.10;;;;;;5037087;28;20071;-82
2022/07/03 08:45:38;;;;;;;2.05;0.75;;;26.20;90.00;;;;;;5036468;28;20476;-82
2022/07/03 08:48:05;;;;;;;3.38;0.80;;;25.80;90.40;;;;;;5036315;28;20120;-82
2022/07/03 08:50:33;;;;;;;2.55;0.75;;;25.60;91.10;;;;;;5035542;28;20072;-82
2022/07/03 08:53:00;;;;;;;3.25;1.02;;;25.40;91.30;;;;;;5035944;28;20499;-82
2022/07/03 08:55:25;;;;;;;4.43;1.10;;;25.20;92.00;;;;;;5036554;28;20115;-82
2022/07/03 08:57:55;;;;;;;2.60;0.95;;;25.10;92.20;;;;;;5037767;28;20116;-82
2022/07/03 09:00:21;;;;;;;3.33;0.90;;;25.30;93.70;;;;;;5036979;28;20040;-82
2022/07/03 09:02:49;;;;;;;2.78;1.02;;;25.50;94.60;;;;;;5037273;28;20140;-81
2022/07/03 09:05:16;;;;;;;2.40;0.80;;;25.80;93.40;;;;;;5020634;28;20078;-81
2022/07/03 09:07:44;;;;;;;3.00;0.90;;;26.10;92.50;;;;;;5037953;28;20040;-82
2022/07/03 09:10:12;;;;;;;3.47;0.90;;;26.30;91.00;;;;;;5039038;28;20068;-81
2022/07/03 09:12:38;;;;;;;1.38;0.50;;;26.40;90.10;;;;;;5036002;28;20123;-81
2022/07/03 09:15:06;;;;;;;1.60;0.82;;;26.50;91.40;;;;;;5035497;28;20199;-82
2022/07/03 09:17:32;;;;;;;0.85;0.55;;;26.60;90.30;;;;;;5035779;28;20047;-82
2022/07/03 09:20:00;;;;;;;3.00;0.75;;;26.80;87.70;;;;;;5018592;28;20072;-83
2022/07/03 09:22:30;;;;;;;1.58;0.63;;;26.60;82.50;;;;;;5035103;28;20055;-82
2022/07/03 09:25:10;;;;;;;2.10;0.60;;;26.60;77.90;;;;;;5018187;28;20041;-82
2022/07/03 09:27:37;;;;;;;2.33;0.60;;;26.80;82.40;;;;;;5034117;28;20037;-83
2022/07/03 09:30:10;;;;;;;0.95;0.52;;;26.90;81.20;;;;;;5018372;28;20399;-83
2022/07/03 09:32:39;;;;;;;2.88;0.68;;;26.90;75.90;;;;;;5021347;28;20514;-82
2022/07/03 09:35:25;;;;;;;1.70;0.70;;;26.70;78.40;;;;;;5050989;28;20052;-82
2022/07/03 09:37:59;;;;;;;3.03;0.60;;;26.70;70.40;;;;;;5051138;28;20033;-81
2022/07/03 09:40:27;;;;;;;1.55;0.60;;;26.60;66.20;;;;;;5033690;28;20095;-83
2022/07/03 09:43:07;;;;;;;2.70;0.60;;;26.50;65.80;;;;;;5034412;28;20044;-83
2022/07/03 09:46:01;;;;;;;2.03;0.60;;;26.50;65.80;;;;;;5050916;28;20048;-83
2022/07/03 09:48:31;;;;;;;2.70;0.35;;;26.80;65.90;;;;;;5050128;28;20041;-83
2022/07/03 09:51:19;;;;;;;3.55;0.80;;;26.80;65.10;;;;;;5049845;28;20059;-83
2022/07/03 09:53:54;;;;;;;2.15;0.70;;;26.90;65.50;;;;;;5035091;28;20049;-81
2022/07/03 09:56:21;;;;;;;0.93;0.55;;;26.80;63.30;;;;;;5053036;28;20091;-82
2022/07/03 09:59:15;;;;;;;2.10;0.50;;;26.90;66.20;;;;;;5052310;28;20082;-82
2022/07/03 10:01:41;;;;;;;2.55;0.70;;;27.10;66.80;;;;;;5050687;28;20047;-82
2022/07/03 10:04:16;;;;;;;3.03;0.80;;;27.30;67.70;;;;;;5051130;28;20086;-83
2022/07/03 10:06:56;;;;;;;1.17;0.50;;;27.50;68.10;;;;;;5050801;28;20060;-82
2022/07/03 10:09:32;;;;;;;2.33;0.85;;;27.50;64.70;;;;;;5021716;28;20072;-82
2022/07/03 10:12:00;;;;;;;1.77;0.60;;;27.30;65.80;;;;;;5030181;28;20207;-81
2022/07/03 10:14:28;;;;;;;2.67;0.90;;;27.20;67.80;;;;;;5030507;28;20120;-80
2022/07/03 10:17:02;;;;;;;0.65;0.40;;;27.30;67.10;;;;;;5028452;28;20040;-81
2022/07/03 10:19:39;;;;;;;2.78;0.73;;;27.30;67.40;;;;;;5009282;28;20045;-81
2022/07/03 10:22:09;;;;;;;2.88;0.60;;;27.40;65.00;;;;;;5042461;28;20228;-81
2022/07/03 10:24:36;;;;;;;2.15;0.55;;;27.40;66.50;;;;;;5043971;28;20045;-82
2022/07/03 10:27:02;;;;;;;1.52;0.60;;;27.30;66.20;;;;;;5036282;28;20041;-82
2022/07/03 10:29:28;;;;;;;1.42;0.57;;;27.00;66.30;;;;;;5032197;28;20264;-83
2022/07/03 10:31:54;;;;;;;1.92;0.57;;;26.90;64.20;;;;;;5019053;28;20122;-80
2022/07/03 10:34:25;;;;;;;2.13;0.40;;;27.00;64.60;;;;;;5043529;28;20116;-80
2022/07/03 10:37:03;;;;;;;2.13;0.60;;;27.00;61.60;;;;;;5036507;28;20111;-79
2022/07/03 10:39:51;;;;;;;1.20;0.52;;;26.80;61.90;;;;;;5029157;28;20069;-80
2022/07/03 10:45:12;;;;;;;2.78;0.60;;;26.80;67.40;;;;;;5024537;28;20591;-80
2022/07/03 10:47:51;;;;;;;1.60;0.55;;;26.70;66.00;;;;;;5053036;28;20037;-80
2022/07/03 10:50:19;;;;;;;1.75;0.65;;;26.80;63.60;;;;;;5026558;28;20067;-80
2022/07/03 10:52:45;;;;;;;1.25;0.43;;;26.70;65.00;;;;;;5050799;28;20049;-81
2022/07/03 10:55:12;;;;;;;1.98;0.47;;;26.70;65.10;;;;;;5033777;28;20492;-81
2022/07/03 10:57:39;;;;;;;2.72;0.65;;;26.90;65.10;;;;;;5049953;28;20056;-81
2022/07/03 11:00:12;;;;;;;2.10;0.80;;;27.00;65.00;;;;;;5021723;28;20062;-82
2022/07/03 11:02:40;;;;;;;2.17;0.75;;;27.00;65.10;;;;;;5014689;28;20188;-82
2022/07/03 11:05:10;;;;;;;1.48;0.47;;;27.10;63.30;;;;;;5044019;28;20053;-78
2022/07/03 11:07:42;;;;;;;3.47;0.60;;;27.10;62.80;;;;;;5040383;28;20392;-82
2022/07/03 11:10:10;;;;;;;;;;;26.80;62.00;;;;;;5044625;28;20041;-82
2022/07/03 11:12:59;;;;;;;1.02;0.40;;;26.70;62.90;;;;;;4997450;28;19917;-81
2022/07/03 11:15:37;;;;;;;1.52;0.50;;;26.90;64.30;;;;;;5027684;28;20045;-82
2022/07/03 11:18:14;;;;;;;1.13;0.50;;;26.90;63.50;;;;;;5017454;28;20120;-81
2022/07/03 11:20:42;;;;;;;1.02;0.45;;;26.70;64.10;;;;;;5033176;28;20040;-80
2022/07/03 11:23:36;;;;;;;2.35;0.60;;;26.80;65.10;;;;;;5031608;28;21011;-81
2022/07/03 11:26:07;;;;;;;1.77;0.52;;;26.90;66.30;;;;;;5004359;28;20102;-81
2022/07/03 11:28:33;;;;;;;1.38;0.40;;;27.00;63.80;;;;;;5007994;28;20160;-80
2022/07/03 11:31:11;;;;;;;1.40;0.60;;;27.00;62.90;;;;;;5011470;28;20498;-80
2022/07/03 11:33:51;;;;;;;1.88;0.50;;;27.10;64.80;;;;;;5012680;28;20118;-82
2022/07/03 11:36:17;;;;;;;3.08;0.50;;;27.10;64.40;;;;;;5010606;28;20049;-81
2022/07/03 11:38:47;;;;;;;1.13;0.45;;;27.20;63.50;;;;;;5033419;28;20049;-84
2022/07/03 11:41:15;;;;;;;2.47;0.70;;;27.20;63.60;;;;;;5034339;28;20049;-82
2022/07/03 11:43:59;;;;;;;1.50;0.55;;;27.10;63.90;;;;;;5033190;28;20128;-81
2022/07/03 11:46:27;;;;;;;1.30;0.80;;;27.10;67.90;;;;;;5040987;28;20401;-80
2022/07/03 11:49:25;;;;;;;5.60;1.08;;;27.20;67.30;;;;;;5021320;28;20495;-84
2022/07/03 11:52:00;;;;;;;2.67;0.68;;;27.30;70.40;;;;;;5014758;28;20044;-85
2022/07/03 11:54:31;;;;;;;2.72;0.98;;;27.30;72.00;;;;;;4992376;28;20080;-84
2022/07/03 11:56:58;;;;;;;3.58;0.90;;;27.50;70.60;;;;;;5019314;28;20037;-84
2022/07/03 11:59:27;;;;;;;6.07;1.25;;;27.70;70.20;;;;;;5009745;28;20032;-83
2022/07/03 12:02:06;;;;;;;5.55;1.10;;;27.60;69.20;;;;;;5060229;28;20021;-85
2022/07/03 12:04:32;;;;;;;5.72;1.42;;;27.20;70.20;;;;;;5059790;28;20053;-83
2022/07/03 12:07:02;;;;;;;2.55;1.05;;;26.80;72.30;;;;;;5058483;28;20037;-85
2022/07/03 12:09:36;;;;;;;3.60;1.17;;;26.70;74.70;;;;;;5034857;28;20076;-83
2022/07/03 12:12:26;;;;;;;2.22;0.80;;;26.60;76.40;;;;;;5035580;28;20068;-84
2022/07/03 12:14:56;;;;;;;2.67;1.08;;;26.30;73.10;;;;;;5027643;28;20048;-82
2022/07/03 12:17:46;;;;;;;3.03;0.80;;;25.90;75.90;;;;;;5044763;28;20045;-82
2022/07/03 12:20:12;;;;;;;1.55;0.80;;;25.70;80.50;;;;;;5004595;28;20033;-81
2022/07/03 12:22:38;;;;;;;3.17;0.75;;;25.60;80.80;;;;;;5023304;28;20072;-81
2022/07/03 12:25:12;;;;;;;3.42;0.70;;;25.40;80.60;;;;;;5039476;28;20065;-81
2022/07/03 12:27:42;;;;;;;3.72;0.70;;;25.20;80.30;;;;;;5017312;28;20041;-81
2022/07/03 12:30:12;;;;;;;4.68;0.88;;;25.00;79.30;;;;;;5018720;28;20099;-83
2022/07/03 12:32:38;;;;;;;3.65;0.93;;;24.80;81.40;;;;;;5045245;28;20163;-82
2022/07/03 12:35:05;;;;;;;6.50;1.52;;;24.60;84.00;;;;;;5039476;28;20691;-81
2022/07/03 12:37:40;;;;;;;2.10;0.85;;;24.50;84.10;;;;;;5029069;28;20041;-82
2022/07/03 12:40:07;;;;;;;2.83;1.08;;;24.60;86.60;;;;;;5014171;28;20041;-82
2022/07/03 12:42:46;;;;;;;4.22;0.90;;;24.90;88.00;;;;;;5043268;28;20093;-83
2022/07/03 12:45:14;;;;;;;3.38;0.80;;;25.40;90.70;;;;;;5017461;28;20616;-81
2022/07/03 12:47:40;;;;;;;2.47;0.95;;;25.80;87.00;;;;;;5029357;28;20040;-82
2022/07/03 12:50:07;;;;;;;2.40;1.08;;;26.10;85.00;;;;;;5048699;28;20029;-78
2022/07/03 12:52:48;;;;;;;1.88;0.75;;;26.40;82.90;;;;;;5034329;28;20029;-78
2022/07/03 12:55:26;;;;;;;1.53;0.70;;;26.40;81.90;;;;;;5035965;28;20377;-77
2022/07/03 13:01:00;;;;;;;3.05;0.75;;;26.00;80.10;;;;;;5018019;28;20780;-78
2022/07/03 13:03:29;;;;;;;3.35;0.90;;;25.60;82.50;;;;;;5048693;28;20206;-77
2022/07/03 13:05:55;;;;;;;1.02;0.70;;;25.40;83.40;;;;;;5050759;28;20090;-78
2022/07/03 13:08:21;;;;;;;4.65;0.93;;;25.30;86.30;;;;;;5046967;28;20029;-78
2022/07/03 13:10:59;;;;;;;2.42;0.70;;;25.20;86.00;;;;;;5042452;28;20029;-78
2022/07/03 13:13:25;;;;;;;4.35;0.60;;;25.10;85.30;;;;;;5050700;28;20052;-78
2022/07/03 13:15:52;;;;;;;3.08;0.70;;;24.90;87.50;;;;;;5050833;28;20041;-78